Mitchell, Indiana
Current Conditions -  °F | °C
As of 1:53 AM on Sunday 23 Nov 2014 (Local Time) from KBMG Reporting Station
Overcast Overcast  
Wind Chill: 50°   Ceiling: 5500
Heat Index: 50°   Visibility: 10mi
Dew Point: 38°   Wind: 7mph
Humidity: 63%   Direction: 150°SSE
Pressure: 29.97"   Gusts: NA
Location:  38.73°N, 86.47°W
Report Text: KBMG 230653Z 15006KT 10SM OVC055 10/03 A2997 RMK AO2 RAE16 SLP149 P0000 T01000033
Loading
Personal Weather Stations






























Interactive Weather Map New forecast layout! Learn more

10-Day Weather Forecast

Advertisements
Track Severe Weather on mobile